createdAt,value
2022-12-03T00:00:14.927Z,100425.47
2022-12-03T00:02:43.469Z,100421.94
2022-12-03T00:05:11.860Z,100419.13
2022-12-03T00:07:41.587Z,100424.47
2022-12-03T00:10:10.439Z,100412.22
2022-12-03T00:12:38.706Z,100399.72
2022-12-03T00:15:08.370Z,100418.50
2022-12-03T00:17:36.355Z,100366.81
2022-12-03T00:20:07.876Z,100416.34
2022-12-03T00:22:38.454Z,100410.78
2022-12-03T00:25:07.569Z,100383.59
2022-12-03T00:27:35.840Z,100413.66
2022-12-03T00:30:06.000Z,100415.34
2022-12-03T00:32:34.807Z,100407.69
2022-12-03T00:35:02.894Z,100312.16
2022-12-03T00:37:31.577Z,100415.97
2022-12-03T00:40:06.121Z,100416.06
2022-12-03T00:42:38.564Z,100312.44
2022-12-03T00:45:09.114Z,100395.44
2022-12-03T00:47:39.729Z,100373.28
2022-12-03T00:50:08.669Z,100418.63
2022-12-03T00:52:36.650Z,100410.78
2022-12-03T00:55:05.430Z,100407.69
2022-12-03T00:57:33.591Z,100352.94
2022-12-03T01:00:01.608Z,100402.59
2022-12-03T01:02:29.856Z,100302.44
2022-12-03T01:04:58.096Z,100402.66
2022-12-03T01:07:26.398Z,100411.00
2022-12-03T01:09:54.472Z,100369.34
2022-12-03T01:12:22.682Z,100353.00
2022-12-03T01:14:53.648Z,100370.13
2022-12-03T01:17:22.567Z,100395.31
2022-12-03T01:19:52.904Z,100403.00
2022-12-03T01:22:21.161Z,100409.19
2022-12-03T01:24:49.292Z,100410.91
2022-12-03T01:27:17.464Z,100396.47
2022-12-03T01:29:45.508Z,100401.41
2022-12-03T01:32:18.550Z,100404.00
2022-12-03T01:34:51.804Z,100386.78
2022-12-03T01:37:23.603Z,100324.66
2022-12-03T01:39:52.948Z,100388.94
2022-12-03T01:42:37.614Z,100361.53
2022-12-03T01:45:07.738Z,100396.34
2022-12-03T01:47:38.300Z,100397.84
2022-12-03T01:50:15.763Z,100396.22
2022-12-03T01:52:44.560Z,100397.22
2022-12-03T01:55:20.196Z,100397.03
2022-12-03T01:57:53.386Z,100393.75
2022-12-03T02:00:25.352Z,100364.84
2022-12-03T02:03:04.525Z,100351.00
2022-12-03T02:05:34.452Z,100391.06
2022-12-03T02:08:02.796Z,100394.31
2022-12-03T02:10:38.054Z,100345.91
2022-12-03T02:13:10.269Z,100382.44
2022-12-03T02:15:40.919Z,100403.69
2022-12-03T02:18:10.378Z,100329.84
2022-12-03T02:21:13.851Z,100405.31
2022-12-03T02:24:08.222Z,100405.31
2022-12-03T02:29:26.367Z,100383.16
2022-12-03T02:31:54.561Z,100389.69
2022-12-03T02:34:43.739Z,100386.34
2022-12-03T02:37:17.325Z,100390.50
2022-12-03T02:39:59.246Z,100397.22
2022-12-03T02:42:36.029Z,100382.66
2022-12-03T02:45:21.810Z,100352.88
2022-12-03T02:47:56.054Z,100240.56
2022-12-03T02:50:31.992Z,100393.16
2022-12-03T02:53:06.989Z,100364.31
2022-12-03T02:55:37.383Z,100401.56
2022-12-03T02:58:06.455Z,100344.53
2022-12-03T03:00:36.308Z,100389.63
2022-12-03T03:03:06.731Z,100391.91
2022-12-03T03:05:38.651Z,100348.72
2022-12-03T03:08:08.601Z,100408.66
2022-12-03T03:10:39.433Z,100396.47
2022-12-03T03:13:14.096Z,100347.66
2022-12-03T03:15:43.016Z,100377.72
2022-12-03T03:18:13.538Z,100377.53
2022-12-03T03:20:42.774Z,100340.09
2022-12-03T03:23:21.911Z,100366.22
2022-12-03T03:26:09.616Z,100417.91
2022-12-03T03:28:44.907Z,100364.19
2022-12-03T03:31:18.182Z,100408.28
2022-12-03T03:33:49.747Z,100347.09
2022-12-03T03:36:22.132Z,100363.13
2022-12-03T03:38:50.510Z,100385.06
2022-12-03T03:41:20.715Z,100390.78
2022-12-03T03:43:50.244Z,100381.41
2022-12-03T03:46:20.520Z,100375.56
2022-12-03T03:48:51.787Z,100374.94
2022-12-03T03:51:20.453Z,100342.88
2022-12-03T03:53:49.973Z,100364.34
2022-12-03T03:56:20.932Z,100387.09
2022-12-03T03:58:49.155Z,100382.94
2022-12-03T04:01:18.405Z,100335.19
2022-12-03T04:03:47.083Z,100378.38
2022-12-03T04:06:15.562Z,100388.72
2022-12-03T04:08:43.505Z,100392.53
2022-12-03T04:11:30.487Z,100375.88
2022-12-03T04:13:58.789Z,100388.72
2022-12-03T04:16:26.744Z,100362.19
2022-12-03T04:18:55.012Z,100374.97
2022-12-03T04:21:42.797Z,100321.28
2022-12-03T04:24:12.378Z,100376.56
2022-12-03T04:26:59.389Z,100333.16
2022-12-03T04:29:27.461Z,100374.63
2022-12-03T04:32:14.384Z,100383.88
2022-12-03T04:35:01.564Z,100287.53
2022-12-03T04:37:29.869Z,100344.91
2022-12-03T04:39:57.878Z,100384.97
2022-12-03T04:42:28.909Z,100388.22
2022-12-03T04:45:01.724Z,100387.16
2022-12-03T04:47:33.220Z,100376.09
2022-12-03T04:50:07.754Z,100356.84
2022-12-03T04:52:38.311Z,100331.03
2022-12-03T04:55:06.774Z,100373.81
2022-12-03T04:57:34.692Z,100360.25
2022-12-03T05:00:04.656Z,100370.41
2022-12-03T05:02:32.723Z,100378.25
2022-12-03T05:05:00.682Z,100380.09
2022-12-03T05:07:29.079Z,100402.06
2022-12-03T05:09:57.283Z,100385.81
2022-12-03T05:12:25.381Z,100391.97
2022-12-03T05:14:59.352Z,100391.66
2022-12-03T05:17:27.546Z,100377.78
2022-12-03T05:20:14.484Z,100383.34
2022-12-03T05:22:42.532Z,100351.63
2022-12-03T05:25:10.822Z,100369.16
2022-12-03T05:27:39.274Z,100374.41
2022-12-03T05:30:08.349Z,100394.13
2022-12-03T05:32:36.463Z,100375.28
2022-12-03T05:35:05.292Z,100392.66
2022-12-03T05:37:33.324Z,100376.84
2022-12-03T05:40:01.177Z,100349.19
2022-12-03T05:42:48.165Z,100386.34
2022-12-03T05:45:16.515Z,100341.63
2022-12-03T05:47:44.603Z,100360.28
2022-12-03T05:50:13.255Z,100361.00
2022-12-03T05:52:41.385Z,100339.16
2022-12-03T05:55:10.663Z,100253.00
2022-12-03T05:57:39.770Z,100382.53
2022-12-03T06:00:20.160Z,100375.81
2022-12-03T06:02:48.524Z,100361.19
2022-12-03T06:05:19.595Z,100370.31
2022-12-03T06:07:50.655Z,100364.53
2022-12-03T06:10:25.197Z,100377.31
2022-12-03T06:12:53.663Z,100358.59
2022-12-03T06:15:22.488Z,100327.84
2022-12-03T06:17:54.571Z,100361.94
2022-12-03T06:20:29.665Z,100375.69
2022-12-03T06:22:59.991Z,100387.44
2022-12-03T06:25:28.161Z,100375.44
2022-12-03T06:28:00.959Z,100391.88
2022-12-03T06:30:34.725Z,100383.00
2022-12-03T06:33:02.905Z,100403.13
2022-12-03T06:35:33.497Z,100410.25
2022-12-03T06:38:01.644Z,100382.44
2022-12-03T06:40:29.659Z,100397.75
2022-12-03T06:42:58.317Z,100396.25
2022-12-03T06:45:26.468Z,100361.75
2022-12-03T06:47:54.380Z,100415.72
2022-12-03T06:50:22.862Z,100414.56
2022-12-03T06:52:52.144Z,100369.44
2022-12-03T06:55:23.027Z,100416.03
2022-12-03T06:57:51.441Z,100411.41
2022-12-03T07:00:20.344Z,100411.97
2022-12-03T07:02:49.878Z,100405.84
2022-12-03T07:05:18.215Z,100416.03
2022-12-03T07:07:52.244Z,100420.34
2022-12-03T07:10:21.102Z,100428.59
2022-12-03T07:12:49.236Z,100410.69
2022-12-03T07:15:17.438Z,100416.47
2022-12-03T07:17:45.743Z,100420.78
2022-12-03T07:20:14.165Z,100410.44
2022-12-03T07:22:42.224Z,100416.16
2022-12-03T07:25:11.490Z,100417.91
2022-12-03T07:27:39.578Z,100405.81
2022-12-03T07:30:09.213Z,100375.84
2022-12-03T07:32:37.520Z,100415.28
2022-12-03T07:35:07.659Z,100400.56
2022-12-03T07:37:37.889Z,100426.56
2022-12-03T07:40:06.844Z,100424.38
2022-12-03T07:42:34.901Z,100411.28
2022-12-03T07:45:03.772Z,100416.38
2022-12-03T07:47:32.298Z,100420.81
2022-12-03T07:50:00.314Z,100402.75
2022-12-03T07:52:28.543Z,100403.63
2022-12-03T07:54:57.288Z,100412.34
2022-12-03T07:57:25.311Z,100421.78
2022-12-03T07:59:53.698Z,100415.63
2022-12-03T08:02:22.135Z,100418.69
2022-12-03T08:04:50.283Z,100398.41
2022-12-03T08:07:18.551Z,100369.22
2022-12-03T08:09:46.831Z,100414.03
2022-12-03T08:12:42.710Z,100410.69
2022-12-03T08:15:26.208Z,100362.75
2022-12-03T08:18:00.760Z,100385.94
2022-12-03T08:20:38.727Z,100357.34
2022-12-03T08:23:34.626Z,100413.28
2022-12-03T08:26:21.282Z,100404.75
2022-12-03T08:28:50.144Z,100403.56
2022-12-03T08:31:29.355Z,100402.44
2022-12-03T08:34:18.899Z,100372.50
2022-12-03T08:37:21.728Z,100392.94
2022-12-03T08:39:54.668Z,100400.03
2022-12-03T08:42:43.142Z,100398.19
2022-12-03T08:45:29.814Z,100384.88
2022-12-03T08:52:00.434Z,100384.16
2022-12-03T08:54:28.805Z,100387.06
2022-12-03T09:01:19.172Z,100404.94
2022-12-03T09:03:54.828Z,100311.22
2022-12-03T09:06:23.767Z,100394.38
2022-12-03T09:08:52.155Z,100386.28
2022-12-03T09:11:20.375Z,100384.59
2022-12-03T09:13:49.624Z,100390.69
2022-12-03T09:16:17.843Z,100399.56
2022-12-03T09:18:46.984Z,100401.06
2022-12-03T09:21:15.524Z,100367.28
2022-12-03T09:23:43.691Z,100387.34
2022-12-03T09:26:12.774Z,100354.16
2022-12-03T09:28:40.913Z,100394.38
2022-12-03T09:31:09.242Z,100383.25
2022-12-03T09:33:37.291Z,100393.38
2022-12-03T09:36:06.867Z,100398.94
2022-12-03T09:38:41.846Z,100400.69
2022-12-03T09:41:12.613Z,100387.22
2022-12-03T09:44:03.311Z,100370.25
2022-12-03T09:46:30.729Z,100368.50
2022-12-03T09:48:59.074Z,100340.06
2022-12-03T09:51:39.520Z,100378.78
2022-12-03T09:54:08.313Z,100382.06
2022-12-03T09:56:38.402Z,100373.81
2022-12-03T09:59:17.147Z,100397.34
2022-12-03T10:01:45.923Z,100388.78
2022-12-03T10:04:14.212Z,100405.16
2022-12-03T10:06:46.038Z,100392.56
2022-12-03T10:09:27.560Z,100403.13
2022-12-03T10:12:00.196Z,100403.31
2022-12-03T10:14:31.334Z,100395.97
2022-12-03T10:17:00.322Z,100390.75
2022-12-03T10:19:33.180Z,100337.50
2022-12-03T10:22:05.889Z,100381.94
2022-12-03T10:24:37.073Z,100386.22
2022-12-03T10:27:29.563Z,100391.44
2022-12-03T10:33:21.670Z,100384.47
2022-12-03T10:35:50.128Z,100380.03
2022-12-03T10:38:18.211Z,100379.09
2022-12-03T10:40:47.482Z,100387.19
2022-12-03T10:43:18.641Z,100388.03
2022-12-03T10:46:13.581Z,100393.63
2022-12-03T10:48:44.420Z,100383.44
2022-12-03T10:51:22.586Z,100354.28
2022-12-03T10:53:51.593Z,100379.09
2022-12-03T10:56:26.247Z,100375.56
2022-12-03T10:58:55.375Z,100379.75
2022-12-03T11:01:26.686Z,100362.38
2022-12-03T11:04:01.270Z,100359.53
2022-12-03T11:06:40.805Z,100363.16
2022-12-03T11:09:44.006Z,100382.72
2022-12-03T11:13:27.244Z,100394.50
2022-12-03T11:16:03.218Z,100337.19
2022-12-03T11:18:38.200Z,100369.13
2022-12-03T11:21:07.658Z,100398.25
2022-12-03T11:23:47.917Z,100376.63
2022-12-03T11:26:19.501Z,100378.53
2022-12-03T11:28:48.045Z,100379.81
2022-12-03T11:31:53.031Z,100381.69
2022-12-03T11:37:16.585Z,100373.72
2022-12-03T11:39:58.275Z,100381.78
2022-12-03T11:46:10.654Z,100362.16
2022-12-03T11:48:46.209Z,100367.97
2022-12-03T11:51:23.446Z,100394.09
2022-12-03T11:53:58.835Z,100380.09
2022-12-03T12:00:28.681Z,100365.50
2022-12-03T12:02:59.938Z,100268.44
2022-12-03T12:05:34.061Z,100357.50
2022-12-03T12:08:03.668Z,100360.25
2022-12-03T12:10:58.319Z,100362.16
2022-12-03T12:13:34.103Z,100357.75
2022-12-03T12:16:09.073Z,100364.91
2022-12-03T12:18:45.900Z,100359.25
2022-12-03T12:22:00.822Z,100362.53
2022-12-03T12:24:43.358Z,100363.00
2022-12-03T12:27:17.352Z,100370.03
2022-12-03T12:30:10.468Z,100327.63
2022-12-03T12:32:52.658Z,100286.31
2022-12-03T12:35:42.705Z,100358.19
2022-12-03T12:38:18.192Z,100292.91
2022-12-03T12:40:51.934Z,100362.09
2022-12-03T12:43:32.788Z,100323.19
2022-12-03T12:46:46.597Z,100340.41
2022-12-03T12:49:15.838Z,100360.69
2022-12-03T12:52:40.069Z,100372.44
2022-12-03T12:55:11.043Z,100312.59
2022-12-03T12:57:40.986Z,100372.22
2022-12-03T13:00:20.779Z,100367.28
2022-12-03T13:03:06.050Z,100310.25
2022-12-03T13:05:59.786Z,100357.69
2022-12-03T13:08:46.099Z,100354.34
2022-12-03T13:11:53.691Z,100354.81
2022-12-03T13:17:26.345Z,100361.09
2022-12-03T13:27:34.211Z,100335.28
2022-12-03T13:30:29.525Z,100363.56
2022-12-03T13:33:00.294Z,100350.44
2022-12-03T13:35:44.376Z,100243.44
2022-12-03T13:38:26.835Z,100343.66
2022-12-03T13:41:39.305Z,100382.94
2022-12-03T13:44:22.805Z,100376.13
2022-12-03T13:50:04.157Z,100385.50
2022-12-03T13:52:34.840Z,100365.22
2022-12-03T13:55:07.411Z,100333.66
2022-12-03T13:57:35.786Z,100383.81
2022-12-03T14:00:05.403Z,100389.16
2022-12-03T14:02:42.375Z,100392.50
2022-12-03T14:05:10.934Z,100373.88
2022-12-03T14:07:39.672Z,100388.97
2022-12-03T14:10:13.432Z,100372.38
2022-12-03T14:12:49.673Z,100388.13
2022-12-03T14:15:28.080Z,100362.44
2022-12-03T14:18:04.657Z,100325.09
2022-12-03T14:21:01.150Z,100376.13
2022-12-03T14:23:29.244Z,100372.78
2022-12-03T14:26:05.303Z,100369.47
2022-12-03T14:28:35.223Z,100360.78
2022-12-03T14:31:03.480Z,100342.66
2022-12-03T14:33:33.306Z,100369.38
2022-12-03T14:36:01.460Z,100360.94
2022-12-03T14:38:30.298Z,100368.34
2022-12-03T14:40:58.767Z,100335.13
2022-12-03T14:43:44.220Z,100368.56
2022-12-03T14:46:14.279Z,100380.66
2022-12-03T14:48:44.253Z,100386.69
2022-12-03T14:51:23.876Z,100349.31
2022-12-03T14:53:57.786Z,100389.31
2022-12-03T14:56:33.427Z,100379.94
2022-12-03T14:59:01.565Z,100351.31
2022-12-03T15:01:31.219Z,100388.75
2022-12-03T15:04:01.596Z,100408.72
2022-12-03T15:06:29.941Z,100383.63
2022-12-03T15:08:58.156Z,100376.13
2022-12-03T15:11:35.117Z,100395.97
2022-12-03T15:14:47.936Z,100369.34
2022-12-03T15:21:51.715Z,100395.38
2022-12-03T15:24:30.780Z,100369.34
2022-12-03T15:26:59.503Z,100395.09
2022-12-03T15:29:27.606Z,100371.41
2022-12-03T15:31:55.973Z,100316.31
2022-12-03T15:34:34.500Z,100402.19
2022-12-03T15:37:09.327Z,100422.69
2022-12-03T15:39:44.995Z,100371.94
2022-12-03T15:42:19.647Z,100361.34
2022-12-03T15:44:48.541Z,100426.81
2022-12-03T15:47:19.241Z,100434.69
2022-12-03T15:49:49.192Z,100418.44
2022-12-03T15:52:17.506Z,100431.16
2022-12-03T15:54:57.730Z,100436.50
2022-12-03T15:57:29.933Z,100388.69
2022-12-03T15:59:58.370Z,100438.88
2022-12-03T16:02:27.986Z,100426.09
2022-12-03T16:05:08.340Z,100418.59
2022-12-03T16:07:37.959Z,100437.59
2022-12-03T16:10:14.075Z,100447.78
2022-12-03T16:12:45.540Z,100445.38
2022-12-03T16:15:27.210Z,100431.03
2022-12-03T16:17:55.936Z,100400.50
2022-12-03T16:20:27.095Z,100445.53
2022-12-03T16:22:58.319Z,100443.94
2022-12-03T16:25:34.898Z,100408.00
2022-12-03T16:28:32.563Z,100450.13
2022-12-03T16:31:02.949Z,100438.91
2022-12-03T16:33:31.551Z,100452.59
2022-12-03T16:36:07.185Z,100444.81
2022-12-03T16:38:56.114Z,100409.00
2022-12-03T16:41:54.171Z,100465.50
2022-12-03T16:50:29.078Z,100452.72
2022-12-03T16:55:48.614Z,100457.63
2022-12-03T16:58:21.515Z,100446.50
2022-12-03T17:00:50.854Z,100456.72
2022-12-03T17:03:20.659Z,100440.53
2022-12-03T17:05:49.913Z,100451.66
2022-12-03T17:08:18.335Z,100466.50
2022-12-03T17:10:46.673Z,100488.94
2022-12-03T17:13:15.709Z,100466.50
2022-12-03T17:15:44.209Z,100465.50
2022-12-03T17:18:14.794Z,100456.31
2022-12-03T17:20:43.887Z,100423.88
2022-12-03T17:23:19.311Z,100469.16
2022-12-03T17:25:48.300Z,100468.97
2022-12-03T17:28:16.649Z,100468.19
2022-12-03T17:30:47.237Z,100461.97
2022-12-03T17:33:31.079Z,100471.53
2022-12-03T17:35:59.328Z,100477.03
2022-12-03T17:38:35.623Z,100478.53
2022-12-03T17:41:07.828Z,100468.03
2022-12-03T17:43:35.927Z,100469.88
2022-12-03T17:46:05.614Z,100441.19
2022-12-03T17:48:35.760Z,100476.13
2022-12-03T17:51:03.805Z,100349.56
2022-12-03T17:53:32.035Z,100483.47
2022-12-03T17:56:00.249Z,100462.00
2022-12-03T17:58:28.741Z,100457.28
2022-12-03T18:01:02.155Z,100491.06
2022-12-03T18:03:31.630Z,100478.97
2022-12-03T18:05:59.894Z,100476.38
2022-12-03T18:08:28.696Z,100492.81
2022-12-03T18:10:59.648Z,100483.91
2022-12-03T18:13:28.334Z,100476.25
2022-12-03T18:15:59.682Z,100489.03
2022-12-03T18:18:30.219Z,100488.94
2022-12-03T18:21:02.319Z,100412.72
2022-12-03T18:23:32.570Z,100484.78
2022-12-03T18:26:02.157Z,100489.03
2022-12-03T18:28:31.450Z,100479.63
2022-12-03T18:31:00.702Z,100497.75
2022-12-03T18:33:29.236Z,100515.97
2022-12-03T18:35:59.787Z,100493.16
2022-12-03T18:38:33.582Z,100459.16
2022-12-03T18:41:02.100Z,100496.06
2022-12-03T18:43:30.567Z,100506.47
2022-12-03T18:45:58.934Z,100490.19
2022-12-03T18:48:26.902Z,100491.25
2022-12-03T18:50:56.852Z,100504.38
2022-12-03T18:53:25.135Z,100443.78
2022-12-03T18:55:53.118Z,100507.09
2022-12-03T18:58:21.499Z,100506.44
2022-12-03T19:00:50.107Z,100512.34
2022-12-03T19:03:18.336Z,100409.16
2022-12-03T19:05:46.514Z,100507.22
2022-12-03T19:08:15.289Z,100505.59
2022-12-03T19:10:44.407Z,100520.34
2022-12-03T19:13:14.636Z,100506.44
2022-12-03T19:15:42.744Z,100514.94
2022-12-03T19:18:10.880Z,100466.88
2022-12-03T19:20:44.527Z,100521.78
2022-12-03T19:23:15.590Z,100509.13
2022-12-03T19:25:55.890Z,100528.06
2022-12-03T19:28:24.488Z,100535.53
2022-12-03T19:31:02.837Z,100514.22
2022-12-03T19:33:32.146Z,100537.66
2022-12-03T19:36:01.724Z,100539.34
2022-12-03T19:38:30.892Z,100543.78
2022-12-03T19:41:06.607Z,100537.38
2022-12-03T19:43:36.911Z,100529.41
2022-12-03T19:46:08.560Z,100499.56
2022-12-03T19:48:38.562Z,100518.38
2022-12-03T19:51:32.936Z,100493.06
2022-12-03T19:53:57.360Z,100528.75
2022-12-03T19:56:25.851Z,100530.59
2022-12-03T19:58:55.842Z,100530.69
2022-12-03T20:01:28.348Z,100479.25
2022-12-03T20:03:59.534Z,100533.22
2022-12-03T20:06:32.076Z,100499.34
2022-12-03T20:09:04.819Z,100525.72
2022-12-03T20:11:34.805Z,100529.19
2022-12-03T20:14:07.901Z,100529.78
2022-12-03T20:16:37.423Z,100533.56
2022-12-03T20:19:08.399Z,100533.44
2022-12-03T20:21:38.658Z,100532.53
2022-12-03T20:24:13.141Z,100530.03
2022-12-03T20:26:42.245Z,100386.94
2022-12-03T20:29:10.663Z,100537.00
2022-12-03T20:31:39.803Z,100512.31
2022-12-03T20:34:10.388Z,100530.94
2022-12-03T20:36:39.487Z,100387.66
2022-12-03T20:39:11.897Z,100518.66
2022-12-03T20:41:40.212Z,100522.06
2022-12-03T20:44:08.413Z,100526.38
2022-12-03T20:46:39.596Z,100522.59
2022-12-03T20:49:08.133Z,100520.28
2022-12-03T20:51:37.170Z,100527.69
2022-12-03T20:54:05.819Z,100406.91
2022-12-03T20:56:39.693Z,100527.09
2022-12-03T20:59:12.631Z,100486.31
2022-12-03T21:01:42.445Z,100524.72
2022-12-03T21:04:16.600Z,100476.78
2022-12-03T21:06:46.613Z,100379.66
2022-12-03T21:09:16.160Z,100531.38
2022-12-03T21:11:44.423Z,100525.44
2022-12-03T21:14:12.561Z,100509.69
2022-12-03T21:17:07.062Z,100530.94
2022-12-03T21:19:35.007Z,100437.53
2022-12-03T21:22:04.151Z,100518.81
2022-12-03T21:24:32.291Z,100527.31
2022-12-03T21:27:00.600Z,100493.31
2022-12-03T21:29:28.986Z,100528.13
2022-12-03T21:31:57.484Z,100539.34
2022-12-03T21:34:27.387Z,100499.22
2022-12-03T21:36:58.442Z,100529.28
2022-12-03T21:39:26.886Z,100544.72
2022-12-03T21:42:22.078Z,100515.53
2022-12-03T21:44:43.569Z,100543.41
2022-12-03T21:47:14.211Z,100548.81
2022-12-03T21:49:43.003Z,100530.94
2022-12-03T21:52:11.147Z,100545.59
2022-12-03T21:54:39.337Z,100515.94
2022-12-03T21:57:08.132Z,100534.72
2022-12-03T21:59:36.552Z,100500.22
2022-12-03T22:02:05.225Z,100542.03
2022-12-03T22:04:33.493Z,100527.47
2022-12-03T22:07:01.776Z,100536.25
2022-12-03T22:09:32.253Z,100504.72
2022-12-03T22:12:01.152Z,100530.16
2022-12-03T22:14:30.110Z,100527.53
2022-12-03T22:17:00.744Z,100506.22
2022-12-03T22:19:29.004Z,100489.34
2022-12-03T22:21:57.429Z,100532.84
2022-12-03T22:24:28.429Z,100530.28
2022-12-03T22:27:00.013Z,100533.22
2022-12-03T22:29:28.290Z,100505.44
2022-12-03T22:31:56.988Z,100538.50
2022-12-03T22:34:25.340Z,100515.06
2022-12-03T22:36:53.909Z,100422.84
2022-12-03T22:39:21.926Z,100538.13
2022-12-03T22:41:50.043Z,100539.69
2022-12-03T22:44:18.537Z,100542.97
2022-12-03T22:46:46.670Z,100535.84
2022-12-03T22:49:14.950Z,100534.44
2022-12-03T22:51:46.669Z,100535.22
2022-12-03T22:54:19.305Z,100522.38
2022-12-03T22:56:50.821Z,100546.44
2022-12-03T22:59:19.248Z,100536.75
2022-12-03T23:01:47.809Z,100499.66
2022-12-03T23:04:16.192Z,100534.78
2022-12-03T23:06:44.301Z,100522.56
2022-12-03T23:09:12.608Z,100527.66
2022-12-03T23:11:42.920Z,100523.94
2022-12-03T23:14:12.465Z,100441.78
2022-12-03T23:16:41.573Z,100485.31
2022-12-03T23:19:09.673Z,100507.69
2022-12-03T23:21:38.730Z,100486.00
2022-12-03T23:24:07.949Z,100480.34
2022-12-03T23:26:38.379Z,100517.13
2022-12-03T23:29:08.564Z,100522.56
2022-12-03T23:31:37.034Z,100480.16
2022-12-03T23:34:05.854Z,100513.50
2022-12-03T23:36:36.146Z,100514.31
2022-12-03T23:39:05.781Z,100475.09
2022-12-03T23:41:33.866Z,100523.16
2022-12-03T23:44:01.820Z,100525.44
2022-12-03T23:46:30.171Z,100523.91
2022-12-03T23:48:59.636Z,100523.09
2022-12-03T23:51:27.716Z,100525.66
2022-12-03T23:53:57.020Z,100480.53
2022-12-03T23:56:29.646Z,100531.88
2022-12-03T23:58:58.537Z,100535.19
